Latest Coastal Weather Observations for Neptune Island

IDS60701

Issued at 6:51 am CDT Friday 6 March 2015 (issued every 10 minutes, with the page automatically refreshed every 10 minutes)

About coastal observations | Map of coastal stations | Coastal observations for SA | Marine services | Other Formats
Station Details ID: 018115 Name: NEPTUNE ISLAND Lat: -35.34 Lon: 136.12 Height: 32.0 m
Data from the previous 72 hours. | See also: Recent months at Neptune Island
Date/Time
CDT
Temp

°C
Wind Pressure Rain
since 9am
mm
Weather Cloud Vis
km
Sea
Height
m
Swell
Dir
 
Speed
knots
Gust
knots
hPa Trend Height
m
Period
s
Dir
06/06:30am 16.5 SW 18 22 1019.3 - 0.0 - - - - - - -
06/06:00am 16.4 SW 17 20 1019.5 - 0.0 - - - - - - -
06/05:30am 16.4 SW 17 22 1019.5 - 0.0 - - - - - - -
06/05:00am 16.2 SW 16 20 1019.9 - 0.0 - - - - - - -
06/04:30am 15.9 SW 18 22 1019.9 - 0.0 - - - - - - -
06/04:00am 16.1 SW 17 21 1019.9 - 0.0 - - - - - - -
06/03:30am 15.9 SW 18 21 1020.2 - 0.0 - - - - - - -
06/03:00am 15.7 SSW 17 20 1020.6 - 0.0 - - - - - - -
06/02:30am 15.8 SSW 18 22 1020.8 - 0.0 - - - - - - -
06/02:00am 15.6 SW 17 22 1021.3 - 0.0 - - - - - - -
06/01:30am 16.0 SW 17 21 1021.8 - 0.0 - - - - - - -
06/01:00am 15.8 SSW 17 22 1021.8 - 0.0 - - - - - - -
06/12:30am 15.8 SSW 17 20 1022.1 - 0.0 - - - - - - -
06/12:00am 15.6 SSW 17 20 1022.3 - 0.0 - - - - - - -
 
Date/Time
CDT
Temp

°C
Wind Pressure Rain
since 9am
mm
Weather Cloud Vis
km
Sea
Height
m
Swell
Dir
 
Speed
knots
Gust
knots
hPa Trend Height
m
Period
s
Dir
05/11:30pm 15.9 SW 17 20 1022.6 - 0.0 - - - - - - -
05/11:00pm 15.9 SSW 15 22 1023.0 - 0.0 - - - - - - -
05/10:30pm 16.0 SSW 16 20 1023.1 - 0.0 - - - - - - -
05/10:00pm 15.8 SSW 16 21 1023.2 - 0.0 - - - - - - -
05/09:30pm 15.7 SSW 15 19 1023.1 - 0.0 - - - - - - -
05/09:00pm 15.9 SSW 15 20 1022.8 - 0.0 - - - - - - -
05/08:30pm 15.9 SSW 16 19 1022.8 - 0.0 - - - - - - -
05/08:00pm 15.9 SSW 16 20 1022.6 - 0.0 - - - - - - -
05/07:30pm 16.1 SSW 15 20 1022.7 - 0.0 - - - - - - -
05/07:00pm 16.4 SSW 17 21 1022.8 - 0.0 - - - - - - -
05/06:30pm 16.9 SSW 16 19 1022.6 - 0.0 - - - - - - -
05/06:00pm 17.4 SSW 16 19 1022.4 - 0.0 - - - - - - -
05/05:30pm 17.5 SSW 15 18 1022.5 - 0.0 - - - - - - -
05/05:00pm 18.3 SSW 15 19 1022.5 - 0.0 - - - - - - -
05/04:30pm 18.3 SSW 11 14 1022.6 - 0.0 - - - - - - -
05/04:00pm 17.8 S 11 14 1022.7 - 0.0 - - - - - - -
05/03:30pm 17.4 SSW 11 14 1023.2 - 0.0 - - - - - - -
05/03:00pm 17.4 S 12 15 1023.5 - 0.0 - - - - - - -
05/02:30pm 17.3 S 11 13 1023.7 - 0.0 - - - - - - -
05/02:00pm 18.6 S 11 15 1023.9 - 0.0 - - - - - - -
05/01:30pm 18.4 SSE 11 13 1024.0 - 0.0 - - - - - - -
05/01:00pm 17.8 S 11 16 1024.1 - 0.0 - - - - - - -
05/12:30pm 17.8 SSE 12 16 1024.2 - 0.0 - - - - - - -
05/12:00pm 18.6 SSE 13 16 1024.6 - 0.0 - - - - - - -
05/11:30am 17.4 SSE 14 19 1024.8 - 0.0 - - - - - - -
05/11:00am 17.0 SSE 15 19 1024.7 - 0.0 - - - - - - -
05/10:30am 16.2 SSE 15 19 1024.6 - 0.0 - - - - - - -
05/10:00am 16.8 SSE 16 23 1024.2 - 0.0 - - - - - - -
05/09:30am 16.3 S 16 21 1024.1 - 0.0 - - - - - - -
05/09:00am 16.0 S 16 22 1023.4 - 0.0 - - - - - - -
05/08:41am 16.0 S 15 25 1023.3 - 0.0 - - - - - - -
05/08:30am 15.8 S 16 19 1023.3 - 0.0 - - - - - - -
05/08:00am 15.9 S 18 23 1022.9 - 0.0 - - - - - - -
05/07:30am 15.8 S 20 23 1022.3 - 0.0 - - - - - - -
05/07:00am 16.1 SSE 19 23 1022.0 - 0.0 - - - - - - -
05/06:30am 16.4 S 21 27 1021.9 - 0.0 - - - - - - -
05/06:00am 16.5 S 18 22 1021.7 - 0.0 - - - - - - -
05/05:30am 16.5 SSE 21 26 1021.1 - 0.0 - - - - - - -
05/05:00am 16.4 S 17 22 1021.1 - 0.0 - - - - - - -
05/04:30am 16.2 S 22 28 1021.0 - 0.0 - - - - - - -
05/04:00am 16.3 S 24 29 1020.8 - 0.0 - - - - - - -
05/03:30am 16.8 S 23 28 1020.6 - 0.0 - - - - - - -
05/03:00am 16.9 S 24 28 1020.6 - 0.0 - - - - - - -
05/02:30am 16.7 S 24 29 1020.6 - 0.0 - - - - - - -
05/02:00am 17.2 S 26 29 1020.3 - 0.0 - - - - - - -
05/01:30am 17.2 S 25 31 1020.5 - 0.0 - - - - - - -
05/01:00am 17.6 SSW 25 30 1020.3 - 0.0 - - - - - - -
05/12:30am 17.6 SSW 23 29 1020.2 - 0.0 - - - - - - -
05/12:00am 17.6 SSW 21 27 1019.9 - 0.0 - - - - - - -
 
Date/Time
CDT
Temp

°C
Wind Pressure Rain
since 9am
mm
Weather Cloud Vis
km
Sea
Height
m
Swell
Dir
 
Speed
knots
Gust
knots
hPa Trend Height
m
Period
s
Dir
04/11:30pm 17.0 SSW 25 30 1019.7 - 0.0 - - - - - - -
04/11:26pm 17.1 SSW 27 34 1019.6 - 0.0 - - - - - - -
04/11:00pm 18.2 SW 25 36 1019.5 - 0.0 - - - - - - -
04/10:58pm 18.2 SW 23 36 1019.5 - 0.0 - - - - - - -
04/10:30pm 18.2 WSW 21 25 1019.4 - 0.0 - - - - - - -
04/10:12pm 17.6 SW 26 33 1019.1 - 0.0 - - - - - - -
04/10:00pm 18.3 WSW 22 25 1019.2 - 0.0 - - - - - - -
04/09:30pm 17.9 WSW 19 22 1018.8 - 0.0 - - - - - - -
04/09:00pm 17.9 WSW 22 26 1018.4 - 0.0 - - - - - - -
04/08:30pm 18.1 WSW 25 31 1018.0 - 0.0 - - - - - - -
04/08:00pm 18.5 WSW 23 27 1017.8 - 0.0 - - - - - - -
04/07:30pm 18.6 WSW 23 26 1017.9 - 0.0 - - - - - - -
04/07:00pm 18.5 WSW 23 27 1017.6 - 0.0 - - - - - - -
04/06:30pm 18.7 WSW 20 24 1017.6 - 0.0 - - - - - - -
04/06:00pm 18.8 WSW 21 25 1017.4 - 0.0 - - - - - - -
04/05:30pm 18.9 WSW 22 25 1017.3 - 0.0 - - - - - - -
04/05:00pm 19.7 WSW 20 25 1017.3 - 0.0 - - - - - - -
04/04:30pm 19.7 WSW 20 23 1017.5 - 0.0 - - - - - - -
04/04:00pm 19.4 WSW 21 24 1017.7 - 0.0 - - - - - - -
04/03:30pm 19.8 WSW 19 22 1017.9 - 0.0 - - - - - - -
04/03:00pm 20.0 WSW 17 19 1018.0 - 0.0 - - - - - - -
04/02:30pm 19.8 WSW 18 20 1018.3 - 0.0 - - - - - - -
04/02:00pm 19.4 WSW 15 18 1018.5 - 0.0 - - - - - - -
04/01:30pm 18.7 WSW 18 22 1018.7 - 0.0 - - - - - - -
04/01:00pm 19.2 WSW 15 19 1018.9 - 0.0 - - - - - - -
04/12:30pm 19.8 W 14 17 1019.2 - 0.0 - - - - - - -
04/12:00pm 18.6 WSW 16 19 1019.5 - 0.0 - - - - - - -
04/11:30am 18.5 WSW 13 17 1019.8 - 0.0 - - - - - - -
04/11:00am 18.8 WSW 17 19 1019.3 - 0.0 - - - - - - -
04/10:30am 18.3 WSW 14 18 1019.2 - 0.0 - - - - - - -
04/10:00am 18.3 W 11 14 1019.1 - 0.0 - - - - - - -
04/09:30am 18.0 W 11 13 1018.9 - 0.0 - - - - - - -
04/09:00am 17.9 W 11 14 1018.9 - 0.0 - - - - - - -
04/08:30am 17.3 W 11 14 1019.0 - 0.0 - - - - - - -
04/08:00am 17.4 WSW 12 16 1018.8 - 0.0 - - - - - - -
04/07:30am 17.2 SW 12 17 1018.5 - 0.0 - - - - - - -
04/07:00am 17.0 WSW 14 19 1018.3 - 0.0 - - - - - - -
04/06:30am 16.9 SW 16 19 1018.0 - 0.0 - - - - - - -
04/06:00am 16.7 SW 14 17 1018.0 - 0.0 - - - - - - -
04/05:30am 16.8 SW 16 19 1017.8 - 0.0 - - - - - - -
04/05:00am 17.0 SW 13 16 1017.8 - 0.0 - - - - - - -
04/04:30am 17.0 SW 15 19 1017.9 - 0.0 - - - - - - -
04/04:00am 17.0 SW 12 17 1017.9 - 0.0 - - - - - - -
04/03:30am 16.9 SW 15 18 1017.9 - 0.0 - - - - - - -
04/03:00am 17.0 SW 13 18 1018.3 - 0.0 - - - - - - -
04/02:30am 17.0 SW 14 18 1018.7 - 0.0 - - - - - - -
04/02:00am 17.1 SSW 15 18 1019.0 - 0.0 - - - - - - -
04/01:30am 17.2 SSW 11 13 1019.2 - 0.0 - - - - - - -
04/01:00am 17.0 SSW 15 18 1019.5 - 0.0 - - - - - - -
04/12:30am 17.1 SSW 15 18 1019.4 - 0.0 - - - - - - -
04/12:00am 17.3 S 15 17 1019.5 - 0.0 - - - - - - -
 
Date/Time
CDT
Temp

°C
Wind Pressure Rain
since 9am
mm
Weather Cloud Vis
km
Sea
Height
m
Swell
Dir
 
Speed
knots
Gust
knots
hPa Trend Height
m
Period
s
Dir
03/11:30pm 17.4 S 13 16 1019.9 - 0.0 - - - - - - -
03/11:00pm 17.3 S 13 16 1020.0 - 0.0 - - - - - - -
03/10:30pm 17.7 S 13 15 1020.1 - 0.0 - - - - - - -
03/10:00pm 17.4 SSW 13 16 1019.9 - 0.0 - - - - - - -
03/09:30pm 17.7 S 13 16 1019.5 - 0.0 - - - - - - -
03/09:00pm 17.7 SSW 14 16 1019.2 - 0.0 - - - - - - -
03/08:30pm 17.6 S 15 17 1018.8 - 0.0 - - - - - - -
03/08:00pm 17.9 SSW 15 18 1018.6 - 0.0 - - - - - - -
03/07:30pm 18.0 SSW 15 17 1018.3 - 0.0 - - - - - - -
03/07:00pm 18.8 SSW 16 20 1018.2 - 0.0 - - - - - - -
03/06:30pm 18.3 S 17 19 1018.0 - 0.0 - - - - - - -
03/06:00pm 19.0 S 17 19 1017.9 - 0.0 - - - - - - -
03/05:30pm 19.0 S 16 19 1018.0 - 0.0 - - - - - - -
03/05:00pm 19.5 SSW 15 18 1017.9 - 0.0 - - - - - - -
03/04:30pm 19.8 SSW 14 17 1018.0 - 0.0 - - - - - - -
03/04:00pm 19.2 S 14 17 1018.1 - 0.0 - - - - - - -
03/03:30pm 19.3 S 14 17 1018.1 - 0.0 - - - - - - -
03/03:00pm 19.0 S 13 15 1018.4 - 0.0 - - - - - - -
03/02:30pm 20.3 S 12 14 1018.5 - 0.0 - - - - - - -
03/02:00pm 20.4 S 12 14 1018.8 - 0.0 - - - - - - -
03/01:30pm 19.2 S 12 15 1019.0 - 0.0 - - - - - - -
03/01:00pm 20.6 S 11 13 1019.2 - 0.0 - - - - - - -
03/12:30pm 19.6 SSE 12 15 1019.4 - 0.0 - - - - - - -
03/12:00pm 20.1 SSE 10 13 1019.9 - 0.0 - - - - - - -
03/11:30am 20.5 SE 9 13 1020.1 - 0.0 - - - - - - -
03/11:00am 20.0 SE 10 12 1020.2 - 0.0 - - - - - - -
03/10:30am 19.6 SE 10 13 1020.2 - 0.0 - - - - - - -
03/10:00am 19.2 SE 11 14 1020.0 - 0.0 - - - - - - -
03/09:30am 18.8 SE 12 15 1019.8 - 0.0 - - - - - - -
03/09:00am 17.7 SE 13 16 1019.3 - 0.0 - - - - - - -
03/08:30am 17.4 SE 14 17 1019.0 - 0.0 - - - - - - -
03/08:00am 16.8 SE 15 18 1018.5 - 0.0 - - - - - - -
03/07:30am 16.5 SE 13 16 1018.4 - 0.0 - - - - - - -
03/07:00am 16.4 SE 15 19 1017.8 - 0.0 - - - - - - -

Other Formats:

Comma delimited format used in spreadsheet applications
http://www.bom.gov.au/fwo/IDS60701/IDS60701.94804.axf

JavaScript Object Notation format (JSON) in row-major order
http://www.bom.gov.au/fwo/IDS60701/IDS60701.94804.json